Time;durP1;ratioP1;P1;durP2;ratioP2;P2;SDS_P1;SDS_P2;PMS_P1;PMS_P2;Temp;Humidity;BMP_temperature;BMP_pressure;BME280_temperature;BME280_humidity;BME280_pressure;Samples;Min_cycle;Max_cycle;Signal;HPM_P1;HPM_P2
2022/01/04 00:00:37;;;;;;;1.73;1.50;;;18.00;64.20;18.80;99499.00;;;;5027042;28;20210;-40
2022/01/04 00:03:02;;;;;;;1.50;1.40;;;18.00;64.20;18.80;99492.00;;;;5026710;28;20178;-40
2022/01/04 00:05:28;;;;;;;1.33;1.23;;;17.90;64.00;18.80;99491.00;;;;5028188;28;20174;-40
2022/01/04 00:07:54;;;;;;;1.60;1.50;;;18.00;64.30;18.80;99495.00;;;;5027982;28;20191;-40
2022/01/04 00:10:22;;;;;;;1.40;1.30;;;18.00;64.20;18.80;99489.00;;;;5027523;28;20178;-40
2022/01/04 00:15:33;;;;;;;3.53;1.60;;;17.90;64.10;18.80;99384.00;;;;5028122;28;20676;-40
2022/01/04 00:17:59;;;;;;;1.77;1.30;;;17.90;64.10;18.70;99481.00;;;;5027991;28;20197;-42
2022/01/04 00:20:24;;;;;;;1.57;1.40;;;17.90;64.10;18.70;99460.00;;;;5028456;28;20205;-41
2022/01/04 00:22:50;;;;;;;2.27;1.40;;;17.90;64.00;18.70;99462.00;;;;5042371;28;20177;-41
2022/01/04 00:25:16;;;;;;;1.77;1.27;;;17.90;64.00;18.70;99463.00;;;;5039693;28;20185;-41
2022/01/04 00:27:42;;;;;;;2.00;1.43;;;17.80;64.30;18.70;99462.00;;;;5029151;28;20218;-40
2022/01/04 00:30:09;;;;;;;1.63;1.43;;;17.80;64.10;18.70;99459.00;;;;5026867;28;20710;-40
2022/01/04 00:32:34;;;;;;;2.83;1.50;;;17.80;63.80;18.70;99460.00;;;;5027790;28;20319;-39
2022/01/04 00:35:00;;;;;;;1.80;1.20;;;17.80;64.00;18.70;99447.00;;;;5027811;28;20182;-40
2022/01/04 00:37:26;;;;;;;1.30;1.20;;;17.80;63.90;18.70;99443.00;;;;5027218;28;20571;-40
2022/01/04 00:39:51;;;;;;;1.40;1.30;;;17.80;63.70;18.70;99428.00;;;;5027108;28;20175;-40
2022/01/04 00:42:17;;;;;;;1.83;1.20;;;17.80;63.80;18.70;99417.00;;;;5027485;28;20182;-40
2022/01/04 00:44:43;;;;;;;1.50;1.40;;;17.80;63.90;18.70;99337.00;;;;5027322;28;20167;-42
2022/01/04 00:47:09;;;;;;;1.40;1.30;;;17.80;64.10;18.70;99421.00;;;;5027324;28;20190;-40
2022/01/04 00:49:36;;;;;;;2.23;1.40;;;17.70;63.60;18.60;99406.00;;;;5026461;28;20205;-40
2022/01/04 00:52:02;;;;;;;1.57;1.37;;;17.70;63.80;18.60;99410.00;;;;5027156;28;20254;-40
2022/01/04 00:54:28;;;;;;;1.07;0.97;;;17.70;63.80;18.60;99404.00;;;;5029135;28;20184;-41
2022/01/04 00:56:53;;;;;;;1.33;1.23;;;17.70;63.80;18.60;99398.00;;;;5031461;28;20204;-40
2022/01/04 00:59:19;;;;;;;1.40;1.30;;;17.70;63.80;18.60;99400.00;;;;5030300;28;20174;-40
2022/01/04 01:01:45;;;;;;;1.70;1.30;;;17.70;63.70;18.60;99402.00;;;;5028608;28;20205;-40
2022/01/04 01:04:11;;;;;;;1.50;1.40;;;17.70;63.70;18.60;99389.00;;;;5026997;28;20198;-41
2022/01/04 01:06:37;;;;;;;1.40;1.30;;;17.70;63.70;18.60;99381.00;;;;5027069;28;20569;-40
2022/01/04 01:09:03;;;;;;;1.20;1.10;;;17.70;63.90;18.60;99380.00;;;;5026691;28;20166;-40
2022/01/04 01:11:29;;;;;;;1.80;1.07;;;17.70;63.80;18.60;99375.00;;;;5026268;28;20806;-40
2022/01/04 01:13:55;;;;;;;1.50;1.20;;;17.60;63.70;18.60;99371.00;;;;5026618;28;20197;-40
2022/01/04 01:16:20;;;;;;;1.00;1.00;;;17.60;63.60;18.60;99357.00;;;;5026956;28;20226;-40
2022/01/04 01:18:46;;;;;;;1.97;1.20;;;17.60;63.70;18.60;99355.00;;;;5034836;28;20182;-42
2022/01/04 01:21:12;;;;;;;1.40;1.30;;;17.60;63.60;18.60;99349.00;;;;5034567;28;20773;-40
2022/01/04 01:23:38;;;;;;;0.93;0.93;;;17.60;63.60;18.60;99343.00;;;;5026649;28;20178;-41
2022/01/04 01:26:05;;;;;;;1.80;1.30;;;17.60;63.60;18.60;99345.00;;;;5026511;28;20685;-42
2022/01/04 01:28:31;;;;;;;1.43;1.33;;;17.60;63.60;18.50;99349.00;;;;5026224;28;20179;-42
2022/01/04 01:30:57;;;;;;;1.30;1.20;;;17.60;63.70;18.50;99341.00;;;;5025735;28;20198;-40
2022/01/04 01:33:24;;;;;;;1.60;1.40;;;17.60;63.70;18.50;99331.00;;;;5026763;28;20181;-40
2022/01/04 01:35:50;;;;;;;1.30;1.20;;;17.50;63.70;18.50;99328.00;;;;5026587;28;20179;-41
2022/01/04 01:38:17;;;;;;;0.90;0.90;;;17.50;63.60;18.50;99327.00;;;;5026051;28;20190;-41
2022/01/04 01:40:43;;;;;;;1.13;1.13;;;17.50;63.80;18.50;99322.00;;;;5025276;28;20682;-40
2022/01/04 01:43:09;;;;;;;1.20;1.10;;;17.50;63.70;18.50;99322.00;;;;5026365;28;20236;-40
2022/01/04 01:45:35;;;;;;;1.07;1.00;;;17.50;63.80;18.50;99330.00;;;;5026314;28;20175;-41
2022/01/04 01:48:00;;;;;;;1.17;1.07;;;17.50;63.70;18.50;99316.00;;;;5026001;28;20185;-40
2022/01/04 01:50:26;;;;;;;1.30;1.20;;;17.50;63.70;18.50;99322.00;;;;5024296;28;20178;-41
2022/01/04 01:52:53;;;;;;;1.13;1.07;;;17.40;64.00;18.50;99323.00;;;;5026063;28;20782;-41
2022/01/04 01:55:20;;;;;;;1.20;1.10;;;17.50;64.00;18.40;99325.00;;;;5025936;28;20170;-40
2022/01/04 01:57:46;;;;;;;0.80;0.80;;;17.40;64.00;18.50;99320.00;;;;5025906;28;20223;-40
2022/01/04 02:00:13;;;;;;;1.37;1.27;;;17.40;64.00;18.40;99313.00;;;;5025558;28;20224;-40
2022/01/04 02:02:39;;;;;;;2.50;1.30;;;17.30;64.00;18.40;99308.00;;;;5027578;28;20169;-40
2022/01/04 02:05:06;;;;;;;1.40;1.30;;;17.30;65.20;18.40;99296.00;;;;5027476;28;20684;-41
2022/01/04 02:07:32;;;;;;;2.47;1.10;;;17.30;64.90;18.40;99305.00;;;;5027769;28;20194;-41
2022/01/04 02:10:03;;;;;;;1.83;1.23;;;17.30;65.30;18.40;99300.00;;;;5025868;28;20769;-43
2022/01/04 02:12:40;;;;;;;1.10;1.03;;;17.40;65.00;18.40;99295.00;;;;5026448;28;20184;-39
2022/01/04 02:15:09;;;;;;;2.30;1.00;;;17.30;65.00;18.30;99282.00;;;;5028404;28;20788;-41
2022/01/04 02:17:35;;;;;;;1.27;1.17;;;17.30;64.90;18.30;99284.00;;;;5026934;28;20194;-40
2022/01/04 02:20:00;;;;;;;2.77;1.40;;;17.30;64.50;18.30;99286.00;;;;5025963;28;20169;-40
2022/01/04 02:22:27;;;;;;;2.77;1.30;;;17.30;64.70;18.30;99272.00;;;;5026423;28;20186;-41
2022/01/04 02:24:53;;;;;;;3.03;1.20;;;17.30;64.30;18.30;99275.00;;;;5028861;28;20290;-40
2022/01/04 02:27:19;;;;;;;1.43;1.03;;;17.30;64.60;18.30;99275.00;;;;5029080;28;20207;-41
2022/01/04 02:29:46;;;;;;;2.13;1.30;;;17.30;64.40;18.30;99275.00;;;;5025768;28;20172;-41
2022/01/04 02:32:12;;;;;;;2.37;1.20;;;17.20;64.90;18.30;99266.00;;;;5026264;28;20191;-40
2022/01/04 02:34:39;;;;;;;1.03;1.00;;;17.20;64.80;18.30;99267.00;;;;5025100;28;20178;-41
2022/01/04 02:37:05;;;;;;;2.50;1.40;;;17.10;64.80;18.30;99258.00;;;;5026049;28;20220;-41
2022/01/04 02:39:34;;;;;;;1.43;1.30;;;17.10;64.70;18.30;99259.00;;;;5025881;28;20171;-42
2022/01/04 02:42:01;;;;;;;2.70;1.30;;;17.10;64.60;18.30;99264.00;;;;5024908;28;20195;-40
2022/01/04 02:44:27;;;;;;;2.70;1.00;;;17.20;64.50;18.30;99264.00;;;;5030018;28;20168;-41
2022/01/04 02:46:52;;;;;;;2.10;1.27;;;17.20;64.50;18.30;99258.00;;;;5030033;28;20238;-41
2022/01/04 02:49:18;;;;;;;2.03;1.30;;;17.10;64.50;18.30;99258.00;;;;5029875;28;20163;-40
2022/01/04 02:51:44;;;;;;;1.53;1.27;;;17.10;64.70;18.20;99259.00;;;;5029539;28;20262;-41
2022/01/04 02:54:10;;;;;;;1.27;1.17;;;17.10;64.70;18.20;99250.00;;;;5029727;28;20178;-40
2022/01/04 02:56:35;;;;;;;1.37;1.27;;;17.10;64.60;18.20;99243.00;;;;5029785;28;20198;-41
2022/01/04 02:59:03;;;;;;;1.80;1.13;;;17.00;64.40;18.20;99254.00;;;;5029703;28;20197;-40
2022/01/04 03:01:30;;;;;;;2.43;1.50;;;17.00;64.60;18.20;99247.00;;;;5029036;28;20202;-40
2022/01/04 03:03:56;;;;;;;1.10;1.10;;;17.10;64.50;18.20;99249.00;;;;5029567;28;20690;-40
2022/01/04 03:06:22;;;;;;;1.40;1.30;;;17.10;65.00;18.10;99256.00;;;;5029042;28;20199;-40
2022/01/04 03:08:48;;;;;;;2.00;0.87;;;17.00;64.60;18.10;99240.00;;;;5029128;28;20842;-41
2022/01/04 03:11:14;;;;;;;1.50;1.30;;;17.00;64.40;18.10;99237.00;;;;5029124;28;20176;-41
2022/01/04 03:13:39;;;;;;;1.40;1.10;;;17.10;64.60;18.10;99235.00;;;;5029632;28;20199;-41
2022/01/04 03:16:05;;;;;;;1.57;1.10;;;17.00;64.30;18.10;99233.00;;;;5029586;28;20722;-40
2022/01/04 03:18:31;;;;;;;2.90;1.33;;;17.00;64.50;18.10;99229.00;;;;5028858;28;20166;-40
2022/01/04 03:20:56;;;;;;;2.27;1.20;;;17.00;64.50;18.10;99223.00;;;;5028945;28;20226;-40
2022/01/04 03:23:22;;;;;;;1.10;1.00;;;17.00;64.60;18.10;99223.00;;;;5029513;28;20169;-40
2022/01/04 03:25:48;;;;;;;1.80;1.20;;;17.00;64.50;18.10;99216.00;;;;5029467;28;20167;-40
2022/01/04 03:28:16;;;;;;;1.30;1.20;;;17.00;64.50;18.10;99211.00;;;;5029301;28;20237;-40
2022/01/04 03:30:42;;;;;;;1.13;1.07;;;17.00;64.50;18.10;99210.00;;;;5028941;28;20187;-41
2022/01/04 03:33:07;;;;;;;1.40;1.30;;;17.00;64.60;18.10;99206.00;;;;5035347;28;20179;-40
2022/01/04 03:35:33;;;;;;;1.13;1.03;;;17.00;64.40;18.00;99198.00;;;;5035037;28;20172;-40
2022/01/04 03:37:59;;;;;;;1.63;1.30;;;16.90;64.30;18.00;99176.00;;;;5030827;28;20271;-41
2022/01/04 03:40:24;;;;;;;1.10;1.10;;;16.90;64.40;18.00;99167.00;;;;5028687;28;20696;-41
2022/01/04 03:42:50;;;;;;;1.10;1.10;;;16.90;64.70;18.00;99152.00;;;;5029055;28;20225;-40
2022/01/04 03:45:16;;;;;;;1.97;1.20;;;16.90;64.50;18.00;99147.00;;;;5028939;28;20169;-41
2022/01/04 03:47:41;;;;;;;0.90;0.90;;;16.90;64.50;18.00;99150.00;;;;5029054;28;20198;-41
2022/01/04 03:50:08;;;;;;;1.30;1.20;;;16.80;64.40;18.00;99142.00;;;;5028523;28;20172;-42
2022/01/04 03:52:35;;;;;;;1.23;1.13;;;16.90;64.30;18.00;99146.00;;;;5028494;28;20173;-41
2022/01/04 03:55:05;;;;;;;1.50;1.10;;;16.80;64.40;18.00;99134.00;;;;5027485;28;20183;-41
2022/01/04 03:57:31;;;;;;;0.90;0.90;;;16.80;64.80;17.90;99119.00;;;;5027933;28;20306;-41
2022/01/04 03:59:56;;;;;;;1.40;1.30;;;16.80;64.40;17.90;99116.00;;;;5027900;28;20179;-41
2022/01/04 04:02:22;;;;;;;1.37;1.13;;;16.80;65.10;17.90;99027.00;;;;5028049;28;20167;-41
2022/01/04 04:04:48;;;;;;;2.80;1.40;;;16.70;66.50;17.90;99104.00;;;;5028104;28;20791;-41
2022/01/04 04:07:13;;;;;;;1.67;1.10;;;16.80;64.90;17.90;99101.00;;;;5028014;28;20742;-41
2022/01/04 04:09:40;;;;;;;1.80;1.30;;;16.70;64.80;17.90;99103.00;;;;5027562;28;20664;-41
2022/01/04 04:12:06;;;;;;;2.60;1.13;;;16.80;65.20;17.90;99096.00;;;;5028377;28;20183;-41
2022/01/04 04:14:32;;;;;;;4.17;1.30;;;16.80;65.40;17.80;99099.00;;;;5047782;28;20317;-41
2022/01/04 04:16:58;;;;;;;3.27;1.30;;;16.80;65.40;17.80;99095.00;;;;5047838;28;20278;-42
2022/01/04 04:19:23;;;;;;;2.90;1.30;;;16.80;65.00;17.90;99081.00;;;;5047531;28;20178;-41
2022/01/04 04:21:49;;;;;;;3.60;1.37;;;16.70;65.10;17.90;99080.00;;;;5047018;28;20249;-41
2022/01/04 04:24:15;;;;;;;4.27;1.40;;;16.70;65.30;17.90;99071.00;;;;5047922;28;20170;-41
2022/01/04 04:26:40;;;;;;;1.20;1.10;;;16.70;65.20;17.90;99063.00;;;;5047780;28;20210;-41
2022/01/04 04:29:06;;;;;;;4.17;1.57;;;16.70;65.70;17.80;99065.00;;;;5038600;28;20183;-41
2022/01/04 04:31:32;;;;;;;1.33;1.23;;;16.70;65.10;17.80;99068.00;;;;5033632;28;20187;-42
2022/01/04 04:33:58;;;;;;;2.43;1.03;;;16.70;65.20;17.80;99058.00;;;;5027360;28;20262;-41
2022/01/04 04:36:24;;;;;;;4.20;1.30;;;16.80;64.90;17.80;99066.00;;;;5026947;28;20656;-40
2022/01/04 04:38:50;;;;;;;2.77;1.47;;;16.80;64.70;17.80;99054.00;;;;5027139;28;20579;-41
2022/01/04 04:41:16;;;;;;;1.10;1.00;;;16.70;64.90;17.80;99035.00;;;;5026436;28;20642;-40
2022/01/04 04:43:42;;;;;;;3.33;1.13;;;16.70;64.70;17.80;99033.00;;;;5027192;28;20171;-41
2022/01/04 04:46:08;;;;;;;2.03;1.20;;;16.70;64.70;17.80;99029.00;;;;5026220;28;20200;-41
2022/01/04 04:48:34;;;;;;;1.40;1.00;;;16.70;64.50;17.80;99023.00;;;;5027252;28;20182;-40
2022/01/04 04:51:00;;;;;;;3.90;1.20;;;16.70;64.70;17.80;99016.00;;;;5027128;28;20184;-41
2022/01/04 04:53:26;;;;;;;1.00;0.90;;;16.60;64.60;17.70;99019.00;;;;5026926;28;20313;-40
2022/01/04 04:55:51;;;;;;;1.57;0.90;;;16.60;64.60;17.70;98992.00;;;;5027084;28;20175;-41
2022/01/04 04:58:17;;;;;;;1.43;0.93;;;16.70;64.60;17.70;99015.00;;;;5026702;28;20174;-41
2022/01/04 05:00:43;;;;;;;4.40;1.30;;;16.60;64.40;17.70;98998.00;;;;5026699;28;20646;-41
2022/01/04 05:03:08;;;;;;;2.07;1.30;;;16.60;64.80;17.70;99008.00;;;;5026004;28;20703;-40
2022/01/04 05:05:34;;;;;;;2.90;0.90;;;16.60;64.50;17.70;99011.00;;;;5026176;28;20669;-41
2022/01/04 05:08:00;;;;;;;1.97;0.93;;;16.70;64.80;17.70;99010.00;;;;5026546;28;20245;-41
2022/01/04 05:10:26;;;;;;;2.70;1.17;;;16.70;64.40;17.70;99009.00;;;;5026766;28;20204;-41
2022/01/04 05:12:51;;;;;;;1.43;1.03;;;16.60;64.30;17.70;99017.00;;;;5026467;28;20640;-41
2022/01/04 05:15:17;;;;;;;1.20;1.10;;;16.60;64.60;17.70;99013.00;;;;5026652;28;20191;-40
2022/01/04 05:17:43;;;;;;;2.30;1.00;;;16.60;64.90;17.40;99014.00;;;;5026982;28;20203;-40
2022/01/04 05:20:09;;;;;;;1.60;1.20;;;16.60;64.70;17.60;99015.00;;;;5026646;28;20179;-40
2022/01/04 05:22:35;;;;;;;2.60;1.30;;;16.60;64.60;17.60;99021.00;;;;5026261;28;20179;-41
2022/01/04 05:25:00;;;;;;;2.07;1.27;;;16.60;64.50;17.60;98999.00;;;;5026354;28;20193;-41
2022/01/04 05:27:26;;;;;;;1.50;1.23;;;16.60;64.60;17.60;98999.00;;;;5026252;28;20197;-41
2022/01/04 05:29:52;;;;;;;2.80;1.40;;;16.60;64.60;17.60;99007.00;;;;5026282;28;20610;-40
2022/01/04 05:32:18;;;;;;;1.87;1.30;;;16.60;64.60;17.60;98999.00;;;;5026174;28;20173;-40
2022/01/04 05:34:43;;;;;;;3.80;1.07;;;16.60;64.30;17.60;99004.00;;;;5026106;28;20180;-40
2022/01/04 05:37:09;;;;;;;4.73;1.77;;;16.50;64.60;17.60;99001.00;;;;5026135;28;20260;-44
2022/01/04 05:39:35;;;;;;;2.63;1.43;;;16.40;64.60;17.60;98991.00;;;;5026216;28;20588;-42
2022/01/04 05:42:00;;;;;;;1.50;1.40;;;16.50;64.70;17.60;98996.00;;;;5025722;28;20632;-40
2022/01/04 05:44:26;;;;;;;2.43;1.40;;;16.50;64.60;17.50;98982.00;;;;5026224;28;20167;-41
2022/01/04 05:46:52;;;;;;;1.87;1.40;;;16.50;64.60;17.50;98982.00;;;;5025703;28;20671;-41
2022/01/04 05:49:18;;;;;;;4.17;1.47;;;16.50;64.20;17.50;98991.00;;;;5025733;28;20228;-40
2022/01/04 05:51:43;;;;;;;4.60;1.20;;;16.50;64.30;17.50;98983.00;;;;5025982;28;20197;-40
2022/01/04 05:54:09;;;;;;;2.60;1.50;;;16.50;64.50;17.50;98975.00;;;;5026127;28;20179;-41
2022/01/04 05:56:35;;;;;;;2.07;1.60;;;16.50;64.20;17.40;98971.00;;;;5025766;28;20196;-41
2022/01/04 05:59:00;;;;;;;2.50;1.53;;;16.50;64.30;17.40;98976.00;;;;5025350;28;20175;-40
2022/01/04 06:01:26;;;;;;;2.23;1.60;;;16.40;64.20;17.40;98967.00;;;;5025718;28;20269;-41
2022/01/04 06:03:53;;;;;;;1.57;1.47;;;16.50;64.30;17.40;98963.00;;;;5025752;28;20175;-41
2022/01/04 06:06:19;;;;;;;1.60;1.40;;;16.50;64.40;17.40;98962.00;;;;5025852;28;20269;-41
2022/01/04 06:08:45;;;;;;;1.60;1.50;;;16.40;64.20;17.40;98969.00;;;;5025576;28;20171;-41
2022/01/04 06:11:55;;;;;;;2.47;1.70;;;16.40;64.10;17.40;98962.00;;;;5024937;28;20262;-41
2022/01/04 06:16:43;;;;;;;2.00;1.40;;;16.40;64.10;17.30;98953.00;;;;5024522;28;20202;-40
2022/01/04 06:19:09;;;;;;;3.17;1.60;;;16.40;64.20;17.30;98948.00;;;;5026862;28;20178;-40
2022/01/04 06:21:35;;;;;;;1.90;1.70;;;16.40;64.20;17.30;98952.00;;;;5034912;28;20210;-40
2022/01/04 06:24:01;;;;;;;1.60;1.50;;;16.40;64.10;17.30;98948.00;;;;5047806;28;20171;-40
2022/01/04 06:26:28;;;;;;;1.57;1.47;;;16.40;64.10;17.30;98945.00;;;;5037334;28;20265;-41
2022/01/04 06:28:54;;;;;;;1.60;1.50;;;16.40;64.10;17.30;98938.00;;;;5025216;28;20708;-41
2022/01/04 06:31:20;;;;;;;3.03;1.83;;;16.40;64.00;17.30;98946.00;;;;5026930;28;20174;-40
2022/01/04 06:33:46;;;;;;;2.20;1.70;;;16.40;63.90;17.30;98954.00;;;;5027787;28;20151;-40
2022/01/04 06:36:13;;;;;;;1.70;1.60;;;16.40;64.20;17.30;98954.00;;;;5029119;28;20190;-41
2022/01/04 06:38:39;;;;;;;1.73;1.63;;;16.40;64.10;17.30;98944.00;;;;5027254;28;20202;-41
2022/01/04 06:41:05;;;;;;;2.17;1.70;;;16.30;64.10;17.30;98936.00;;;;5025157;28;20867;-41
2022/01/04 06:43:31;;;;;;;1.73;1.63;;;16.30;64.00;17.30;98944.00;;;;5026596;28;20258;-40
2022/01/04 06:45:57;;;;;;;2.10;1.57;;;16.30;64.10;17.30;98935.00;;;;5027562;28;20178;-40
2022/01/04 06:48:23;;;;;;;1.80;1.70;;;16.30;64.00;17.30;98932.00;;;;5026116;28;20163;-42
2022/01/04 06:50:49;;;;;;;1.70;1.60;;;16.30;64.10;17.30;98932.00;;;;5025274;28;20848;-40
2022/01/04 06:53:15;;;;;;;1.60;1.50;;;16.30;64.00;17.30;98926.00;;;;5025546;28;20174;-41
2022/01/04 06:55:41;;;;;;;1.80;1.70;;;16.30;63.90;17.30;98916.00;;;;5025418;28;20253;-41
2022/01/04 06:58:07;;;;;;;3.20;1.90;;;16.30;63.70;17.30;98917.00;;;;5025266;28;20848;-41
2022/01/04 07:00:33;;;;;;;1.87;1.77;;;16.30;63.80;17.30;98912.00;;;;5024887;28;20195;-41
2022/01/04 07:02:59;;;;;;;1.77;1.67;;;16.30;63.70;17.20;98920.00;;;;5025233;28;20163;-41
2022/01/04 07:05:25;;;;;;;1.80;1.70;;;16.30;63.70;17.30;98910.00;;;;5025770;28;20167;-41
2022/01/04 07:07:51;;;;;;;2.00;1.80;;;16.30;63.80;17.20;98905.00;;;;5024866;28;20202;-41
2022/01/04 07:10:18;;;;;;;2.10;1.90;;;16.30;63.80;17.20;98897.00;;;;5024810;28;20171;-40
2022/01/04 07:12:44;;;;;;;2.03;1.83;;;16.30;63.80;17.20;98899.00;;;;5025370;28;20174;-40
2022/01/04 07:15:10;;;;;;;1.67;1.57;;;16.30;63.80;17.20;98908.00;;;;5024835;28;20187;-40
2022/01/04 07:17:39;;;;;;;2.53;1.80;;;16.20;63.80;17.20;98908.00;;;;5024021;28;20195;-41
2022/01/04 07:20:06;;;;;;;2.00;1.90;;;16.20;63.80;17.20;98903.00;;;;5024978;28;20718;-41
2022/01/04 07:22:32;;;;;;;1.90;1.80;;;16.20;64.00;17.20;98915.00;;;;5025461;28;20556;-40
2022/01/04 07:24:57;;;;;;;2.20;2.00;;;16.20;63.80;17.20;98905.00;;;;5024974;28;20170;-41
2022/01/04 07:27:23;;;;;;;2.30;2.10;;;16.20;63.90;17.20;98890.00;;;;5034420;28;20620;-41
2022/01/04 07:29:50;;;;;;;2.07;1.90;;;16.20;63.80;17.20;98900.00;;;;5043081;28;20178;-41
2022/01/04 07:32:15;;;;;;;2.07;1.97;;;16.20;63.80;17.20;98893.00;;;;5033721;28;20160;-42
2022/01/04 07:34:41;;;;;;;2.20;2.10;;;16.20;64.10;17.20;98887.00;;;;5027365;28;20265;-40
2022/01/04 07:37:07;;;;;;;2.40;2.20;;;16.20;64.00;17.10;98887.00;;;;5028269;28;20199;-41
2022/01/04 07:39:33;;;;;;;2.47;2.10;;;16.10;63.90;17.10;98892.00;;;;5027345;28;20182;-40
2022/01/04 07:42:00;;;;;;;2.37;2.00;;;16.10;63.90;17.10;98904.00;;;;5028572;28;20216;-40
2022/01/04 07:44:26;;;;;;;2.23;2.03;;;16.10;63.70;17.10;98888.00;;;;5028315;28;20803;-41
2022/01/04 07:46:52;;;;;;;2.20;2.00;;;16.10;63.70;17.10;98882.00;;;;5028671;28;20699;-40
2022/01/04 07:49:18;;;;;;;2.33;1.90;;;16.10;63.70;17.10;98896.00;;;;5031048;28;20171;-41
2022/01/04 07:51:43;;;;;;;2.30;2.10;;;16.10;63.70;17.10;98904.00;;;;5034229;28;20581;-39
2022/01/04 07:54:09;;;;;;;2.40;2.20;;;16.10;63.80;17.10;98900.00;;;;5031817;28;20178;-41
2022/01/04 07:56:35;;;;;;;2.40;2.20;;;16.10;63.70;17.10;98897.00;;;;5030517;28;20191;-43
2022/01/04 07:59:01;;;;;;;2.50;2.10;;;16.00;63.60;17.10;98905.00;;;;5032964;28;20592;-41
2022/01/04 08:01:29;;;;;;;2.43;2.23;;;16.10;63.70;17.10;98888.00;;;;5032406;28;20203;-41
2022/01/04 08:03:55;;;;;;;2.57;2.37;;;16.10;63.70;17.10;98883.00;;;;5030071;28;20523;-41
2022/01/04 08:06:21;;;;;;;2.40;2.20;;;16.10;63.70;17.10;98881.00;;;;5027500;28;20218;-41
2022/01/04 08:08:47;;;;;;;2.40;2.20;;;16.10;63.70;17.10;98885.00;;;;5034283;28;20229;-40
2022/01/04 08:11:12;;;;;;;2.60;2.40;;;16.10;63.70;17.00;98879.00;;;;5028814;28;20221;-40
2022/01/04 08:13:38;;;;;;;2.53;2.33;;;16.10;63.60;17.00;98876.00;;;;5028291;28;20188;-41
2022/01/04 08:16:04;;;;;;;2.50;2.30;;;16.10;63.70;17.00;98873.00;;;;5027154;28;20222;-40
2022/01/04 08:18:30;;;;;;;2.70;2.50;;;16.00;63.60;17.00;98890.00;;;;5027703;28;20195;-41
2022/01/04 08:20:57;;;;;;;2.40;2.20;;;16.00;63.60;17.00;98890.00;;;;5027824;28;20195;-40
2022/01/04 08:23:24;;;;;;;2.60;2.40;;;16.00;63.60;17.00;98880.00;;;;5028116;28;20171;-41
2022/01/04 08:25:50;;;;;;;2.80;2.50;;;16.00;63.60;17.00;98877.00;;;;5027556;28;20539;-41
2022/01/04 08:28:16;;;;;;;2.80;2.60;;;16.00;63.70;17.00;98879.00;;;;5027159;28;20198;-40
2022/01/04 08:30:43;;;;;;;2.80;2.50;;;16.00;63.70;17.00;98864.00;;;;5027818;28;20833;-40
2022/01/04 08:33:09;;;;;;;2.70;2.50;;;16.00;63.60;17.00;98867.00;;;;5027818;28;20178;-46
2022/01/04 08:35:35;;;;;;;2.50;2.30;;;15.90;63.60;17.00;98877.00;;;;5041624;28;20550;-40
2022/01/04 08:38:01;;;;;;;2.70;2.50;;;16.00;63.60;17.00;98874.00;;;;5031449;28;20519;-41
2022/01/04 08:40:27;;;;;;;2.80;2.60;;;16.00;63.70;17.00;98872.00;;;;5047165;28;20206;-41
2022/01/04 08:42:52;;;;;;;2.83;2.63;;;15.90;63.80;16.90;98859.00;;;;5048021;28;20178;-40
2022/01/04 08:45:21;;;;;;;2.80;2.60;;;15.90;63.50;16.90;98845.00;;;;5046515;28;20760;-41
2022/01/04 08:47:47;;;;;;;3.07;2.80;;;15.90;63.70;16.90;98849.00;;;;5046942;28;20200;-41
2022/01/04 08:50:14;;;;;;;2.80;2.50;;;15.90;63.60;16.90;98856.00;;;;5047368;28;20201;-41
2022/01/04 08:52:40;;;;;;;2.90;2.70;;;15.90;63.70;16.90;98842.00;;;;5047874;28;20319;-44
2022/01/04 08:55:07;;;;;;;2.97;2.77;;;15.90;64.70;16.90;98860.00;;;;5045028;28;20186;-41
2022/01/04 08:57:33;;;;;;;2.67;2.47;;;15.90;63.90;17.00;98848.00;;;;5050474;28;20277;-40
2022/01/04 08:59:59;;;;;;;5.53;3.00;;;15.90;64.00;17.00;98860.00;;;;5049643;28;20262;-41
2022/01/04 09:02:25;;;;;;;4.10;2.77;;;15.80;64.40;17.00;98861.00;;;;5049237;28;20241;-41
2022/01/04 09:04:51;;;;;;;2.87;2.53;;;15.90;64.30;17.00;98862.00;;;;5038406;28;20171;-41
2022/01/04 09:07:17;;;;;;;3.10;2.80;;;16.10;64.30;17.10;98875.00;;;;5028856;28;20472;-41
2022/01/04 09:09:43;;;;;;;3.13;2.50;;;16.30;64.20;17.10;98881.00;;;;5030034;28;20175;-42
2022/01/04 09:12:08;;;;;;;6.17;2.50;;;16.50;64.00;17.20;98869.00;;;;5029551;28;20549;-40
2022/01/04 09:14:44;;;;;;;4.30;2.20;;;16.70;63.90;17.40;98877.00;;;;5029480;28;20174;-40
2022/01/04 09:19:54;;;;;;;2.53;2.23;;;17.30;63.70;17.70;98891.00;;;;5029552;28;20545;-40
2022/01/04 09:22:20;;;;;;;6.33;2.10;;;17.60;62.80;17.90;98901.00;;;;5046944;28;20231;-40
2022/01/04 09:24:46;;;;;;;1.97;1.80;;;17.80;62.30;18.00;98905.00;;;;5049165;28;20175;-41
2022/01/04 09:27:12;;;;;;;2.90;1.93;;;18.00;62.20;18.10;98911.00;;;;5049186;28;20178;-40
2022/01/04 09:29:38;;;;;;;4.50;2.30;;;18.10;61.90;18.20;98917.00;;;;5049110;28;20524;-40
2022/01/04 09:32:04;;;;;;;4.07;2.20;;;18.30;62.00;18.30;98926.00;;;;5049575;28;20182;-40
2022/01/04 09:34:30;;;;;;;6.33;2.40;;;18.30;62.10;18.50;98903.00;;;;5031006;28;20567;-42
2022/01/04 09:36:56;;;;;;;9.97;2.30;;;18.40;62.40;18.50;98907.00;;;;5047986;28;20242;-41
2022/01/04 09:39:22;;;;;;;7.60;2.30;;;18.50;62.40;18.60;98889.00;;;;5048383;28;20263;-41
2022/01/04 09:41:49;;;;;;;12.80;2.60;;;18.60;62.50;18.70;98875.00;;;;5048562;28;20647;-40
2022/01/04 09:44:14;;;;;;;9.03;2.43;;;18.70;62.60;18.80;98864.00;;;;5049034;28;20169;-42
2022/01/04 09:46:40;;;;;;;8.83;2.67;;;18.70;62.60;18.90;98877.00;;;;5047559;28;20191;-40
2022/01/04 09:49:06;;;;;;;8.63;2.73;;;18.80;62.70;18.90;98885.00;;;;5048133;28;20194;-40
2022/01/04 09:51:32;;;;;;;9.03;2.80;;;18.80;62.90;19.00;98893.00;;;;5032118;28;20530;-40
2022/01/04 09:53:58;;;;;;;11.63;2.93;;;18.80;63.30;19.10;98893.00;;;;5027540;28;20204;-41
2022/01/04 09:56:23;;;;;;;13.47;3.00;;;18.90;63.30;19.10;98899.00;;;;5028170;28;20198;-41
2022/01/04 09:58:51;;;;;;;9.93;3.37;;;18.90;63.30;19.10;98895.00;;;;5048224;28;20273;-40
2022/01/04 10:01:25;;;;;;;15.43;2.93;;;18.80;63.30;19.20;98877.00;;;;5048885;28;20211;-41
2022/01/04 10:03:51;;;;;;;9.63;2.70;;;18.80;63.50;19.20;98876.00;;;;5048866;28;20154;-41
2022/01/04 10:06:17;;;;;;;12.90;3.00;;;18.80;63.50;19.20;98880.00;;;;5048669;28;20190;-40
2022/01/04 10:08:53;;;;;;;7.33;2.57;;;18.80;63.60;19.20;98883.00;;;;5048719;28;20171;-40
2022/01/04 10:11:43;;;;;;;8.67;2.87;;;18.70;63.70;19.20;98880.00;;;;5048720;28;20245;-41
2022/01/04 10:14:29;;;;;;;8.73;3.00;;;18.70;63.80;19.30;98854.00;;;;5048259;28;20875;-41
2022/01/04 10:16:59;;;;;;;6.43;2.60;;;18.70;63.80;19.20;98847.00;;;;5047776;28;20197;-41
2022/01/04 10:19:34;;;;;;;7.50;2.87;;;18.70;64.00;19.20;98861.00;;;;5047847;28;20182;-41
2022/01/04 10:22:19;;;;;;;8.10;2.57;;;18.70;64.00;19.20;98859.00;;;;5048188;28;20185;-40
2022/01/04 10:24:47;;;;;;;6.47;2.73;;;18.70;64.10;19.20;98867.00;;;;5048254;28;20682;-41
2022/01/04 10:27:36;;;;;;;6.50;2.50;;;18.70;64.20;19.20;98873.00;;;;5046751;28;20312;-40
2022/01/04 10:30:28;;;;;;;7.87;2.63;;;18.60;64.20;19.20;98875.00;;;;5048184;28;20165;-41
2022/01/04 10:33:01;;;;;;;6.93;2.77;;;18.60;64.20;19.20;98877.00;;;;5022179;28;20190;-41
2022/01/04 10:35:45;;;;;;;5.27;2.43;;;18.60;64.10;18.90;98879.00;;;;5027871;28;20269;-41
2022/01/04 10:38:28;;;;;;;6.53;2.20;;;18.50;64.10;19.10;98874.00;;;;5028081;28;20721;-42
2022/01/04 10:41:06;;;;;;;6.20;2.60;;;18.50;64.20;19.10;98875.00;;;;5028598;28;20219;-41
2022/01/04 10:43:37;;;;;;;5.83;2.40;;;18.50;65.10;19.10;98879.00;;;;5028657;28;20191;-40
2022/01/04 10:46:04;;;;;;;5.93;2.40;;;18.50;64.40;19.10;98883.00;;;;5031416;28;20174;-42
2022/01/04 10:48:39;;;;;;;6.47;2.67;;;18.50;64.60;19.10;98881.00;;;;5030071;28;20162;-40
2022/01/04 10:51:16;;;;;;;4.93;2.37;;;18.40;64.30;19.10;98877.00;;;;5028490;28;20169;-40
2022/01/04 10:53:46;;;;;;;5.40;2.53;;;18.40;64.50;19.10;98881.00;;;;5028874;28;20699;-40
2022/01/04 10:56:22;;;;;;;6.27;2.57;;;18.40;64.50;19.00;98859.00;;;;5028477;28;20217;-40
2022/01/04 10:58:50;;;;;;;4.40;2.20;;;18.30;64.90;19.00;98866.00;;;;5028880;28;20262;-41
2022/01/04 11:01:18;;;;;;;4.90;2.30;;;18.40;65.00;19.00;98871.00;;;;5029590;28;20245;-40